Tiempo atmosférico en la estación meteorológica de Sevilla Aeropuerto, Sevilla (34 m.)



Fecha
DESCASC
Temp. máxima en grados centígrados (hora)
DESCASC
Temp. mínima en grados centígrados (hora)
DESCASC
Temp. media en grados centígrados
DESCASC
Racha de viento máxima en m/sg (hora)
DESCASC
Velocidad máxima media en intervalos de 10 minutos(hora)
DESCASC
Precipitaciones diarias en mm
DESCASC
Precipitaciones de 00:00 a 06:00 en mm
DESCASC
Precipitaciones de 06:00 a 12:00 en mm
DESCASC
Precipitaciones de 12:00 a 18:00 en mm
DESCASC
Precipitaciones de 18:00 a 24:00 en mm
DESCASC
20-09-2020 28.1 (17:40) 17.2 (06:50) 22.7 8.33 (15:50) 5.83 (20:30) 0 0 0 0 0
19-09-2020 26.6 (17:30) 18.8 (08:00) 22.7 8.89 (18:30) 6.39 (19:40) 1.4 0.7 0.7 0 0
17-09-2020 30.1 (15:50) 21.1 (00:00) 25.6 11.39 (18:10) 7.78 (18:00) 0 0 0 0 0
16-09-2020 30.5 (16:30) 19.2 (08:20) 24.9 8.89 (20:10) 6.39 (20:10) 0 0 0 0 0
15-09-2020 32 (18:10) 20.7 (00:00) 26.4 6.67 (13:50) 5.28 (21:30) 0 0 0 0 0
14-09-2020 33.5 (16:10) 23.4 (00:00) 28.4 10.28 (16:10) 6.67 (19:20) 0.2 0 0 0.2 0
13-09-2020 36.6 (17:10) 23.3 (00:00) 29.9 11.39 (19:40) 8.89 (19:50) 0 0 0 0 0
12-09-2020 38 (16:40) 20.1 (07:40) 29.1 10.28 (16:50) 6.39 (17:00) 0 0 0 0 0
11-09-2020 34.7 (16:30) 20.2 (00:00) 27.5 7.22 (21:50) 5.56 (21:50) 0 0 0 0 0
10-09-2020 36 (19:00) 20.4 (00:00) 28.2 7.78 (00:50) 5 (02:00) 0 0 0 0 0
09-09-2020 35.2 (18:10) 20.7 (08:00) 28 6.11 (09:30) 4.44 (09:40) 0 0 0 0 0
08-09-2020 35 (16:30) 20.6 (00:00) 27.8 9.72 (21:00) 6.94 (20:50) 0 0 0 0 0
07-09-2020 37.1 (16:50) 20.7 (08:00) 28.9 8.89 (18:50) 6.67 (19:00) 0 0 0 0 0
06-09-2020 37.8 (18:10) 20.9 (00:00) 29.3 9.17 (19:50) 7.22 (19:50) 0 0 0 0 0
05-09-2020 37.7 (18:00) 20 (00:00) 28.9 8.33 (23:40) 5.83 (23:00) 0 0 0 0 0
04-09-2020 36.7 (17:20) 22.6 (00:00) 29.7 11.39 (12:50) 7.5 (13:00) 0 0 0 0 0
03-09-2020 35.8 (16:10) 19.2 (00:00) 27.5 12.78 (14:50) 8.06 (15:20) 0 0 0 0 0
02-09-2020 34.5 (19:10) 17.5 (00:00) 26 8.33 (21:20) 6.39 (21:20) 0 0 0 0 0
01-09-2020 32.7 (18:00) 18.6 (00:00) 25.7 11.67 (19:50) 8.33 (19:20) 0 0 0 0 0
31-08-2020 34.4 (17:10) 18.1 (00:00) 26.3 10.28 (14:30) 6.39 (14:10) 0 0 0 0 0
30-08-2020 33.5 (17:00) 17.6 (00:00) 25.6 10.83 (15:10) 7.5 (11:00) 0 0 0 0 0
29-08-2020 31.8 (17:20) 18 (00:00) 24.9 11.67 (14:10) 8.33 (14:10) 0 0 0 0 0
28-08-2020 36.8 (18:30) 22.1 (00:00) 29.4 13.89 (19:10) 10.28 (19:10) 0 0 0 0 0
27-08-2020 39.8 (17:00) 20.3 (00:00) 30 9.17 (15:50) 6.39 (20:50) 0 0 0 0 0
26-08-2020 40.3 (17:50) 22 (00:00) 31.1 8.89 (20:50) 6.39 (20:30) -- 0 -- -- 0
25-08-2020 39.1 (18:10) 21.9 (00:00) 30.5 7.22 (02:30) 5.83 (21:10) 0 0 0 0 0
24-08-2020 37.2 (19:00) 19 (06:00) 28.1 7.78 (17:30) 5.83 (21:50) 0 0 0 0 0

Gráficas

Temp. máximas Temp. mínimas Temp. medias Precipitaciones Rachas de viento máximas Velocidades máximas media en intervalos de 10 minutos

Datos horarios

Fecha y hora oficial Temperatura (ºC) Velocidad del viento (km/h) Dirección del viento Racha (km/h) Dirección de racha Precipitación (mm) Presión (hPa) Tendencia (hPa) Humedad (%)
2020-09-22 23:00:00 23.2 9 Sudoeste 17 Oeste 0 1012.3 -- 57
2020-09-22 22:00:00 24 14 Sudoeste 30 Sudoeste 0 1011.7 -- 53
2020-09-22 21:00:00 25.4 18 Sudoeste 37 Sudoeste 0 1011.3 -- 46
2020-09-22 20:00:00 26.1 28 Sudoeste 37 Sudoeste 0 1010.6 -- 40
2020-09-22 19:00:00 28.5 22 Sudoeste 32 Sudoeste 0 1010 -- 33
2020-09-22 18:00:00 29.6 17 Sudoeste 28 Sudoeste 0 1010.5 -- 33
2020-09-22 17:00:00 29.2 11 Sudoeste 21 Sudoeste 0 1010.8 -- 32
2020-09-22 16:00:00 29.9 14 Oeste 22 Oeste 0 1011.4 -- 24
2020-09-22 15:00:00 28.9 12 Sudoeste 21 Sudoeste 0 1012.3 -- 25
2020-09-22 14:00:00 28.2 5 Oeste 13 Oeste 0 1012.8 -- 25
2020-09-22 13:00:00 27.3 4 Este 11 Norte 0 1013.1 -- 39
2020-09-22 12:00:00 25 5 Norte 13 Nordeste 0 1013.5 -- 42
2020-09-22 11:00:00 22.9 7 Norte 11 Norte 0 1013.5 -- 56
2020-09-22 10:00:00 20.7 7 Norte 9 Norte 0 1013.2 -- 69
2020-09-22 09:00:00 18.9 2 Nordeste 9 Norte 0 1012.9 -- 76
2020-09-22 08:00:00 18.4 3 Norte 8 Noroeste 0 1012.6 -- 76
2020-09-22 07:00:00 18.6 0 Calma 5 Este 0 1012.4 -- 76
2020-09-22 06:00:00 19.4 4 Este 22 Norte 0 1012.1 -- 70
2020-09-22 05:00:00 21.5 14 Norte 18 Norte 0 1012.3 -- 58
2020-09-22 04:00:00 21.7 10 Nordeste 15 Nordeste 0 1012.6 -- 57
2020-09-22 03:00:00 19.7 8 Este 11 Este 0 1012.8 -- 83
2020-09-22 02:00:00 20.1 5 Este 8 Sur 0 1013 -- 80
2020-09-22 01:00:00 21.3 5 Sudeste 11 Sur 0 1013.2 -- 73
2020-09-22 00:00:00 22.7 6 Sudoeste 18 Sur 0 1013.3 -- 67
2020-09-21 23:00:00 23.5 11 Sur 21 Sudoeste 0 1013.2 -- 64
2020-09-21 22:00:00 25.1 15 Sudoeste 30 Sudoeste 0 1012.6 -- 55
2020-09-21 21:00:00 27.1 18 Sudoeste 30 Sudoeste 0 1012.1 -- 47
2020-09-21 20:00:00 29.2 17 Sudoeste 26 Sudoeste 0 1012.2 -- 38
2020-09-21 19:00:00 30.6 9 Oeste 17 Sudoeste 0 1012.1 -- 29
2020-09-21 18:00:00 31 2 Sur 18 Oeste 0 1012.4 -- 27
2020-09-21 17:00:00 30.3 6 Oeste 18 Noroeste 0 1012.8 -- 26
2020-09-21 16:00:00 29.1 8 Norte 17 Noroeste 0 1013.3 -- 29
2020-09-21 15:00:00 28.1 9 Norte 24 Norte 0 1014.1 -- 36
2020-09-21 14:00:00 27.7 8 Nordeste 15 Nordeste 0 1014.6 -- 38
2020-09-21 13:00:00 25.7 8 Norte 17 Norte 0 1015.1 -- 48
2020-09-21 12:00:00 23.3 7 Nordeste 15 Nordeste 0 1015.4 -- 59
2020-09-21 11:00:00 22.1 9 Nordeste 13 Nordeste 0 1015.2 -- 66
2020-09-21 10:00:00 20.7 6 Nordeste 13 Norte 0 1014.9 -- 75
2020-09-21 09:00:00 20.1 8 Norte 15 Nordeste 0 1014.8 -- 78
2020-09-21 08:00:00 20.1 8 Nordeste 13 Nordeste 0 1014.3 -- 78
2020-09-21 07:00:00 20.3 2 Nordeste 8 Noroeste 0 1014 -- 79
2020-09-21 06:00:00 19.5 2 Norte -- -- 0 1013.8 -- 96
2020-09-21 05:00:00 19.4 2 Sudeste 8 Sudeste 0 1013.8 -- 94
2020-09-21 04:00:00 19.6 4 Sudeste 8 Oeste 0 1014.1 -- 87
2020-09-21 03:00:00 20.7 3 Noroeste 8 Oeste 0 1014.4 -- 80
2020-09-21 02:00:00 21.4 0 Calma 11 Oeste 0 1014.6 -- 76
2020-09-21 01:00:00 21.9 10 Oeste 15 Oeste 0 1014.7 -- 72
2020-09-21 00:00:00 22.5 10 Oeste 13 Oeste 0 1015 -- 70
2020-09-20 23:00:00 22.9 10 Sudoeste 21 Oeste 0 1015.1 -- 71
2020-09-20 22:00:00 23.8 10 Sudoeste 21 Sudoeste 0 1014.9 -- 66
2020-09-20 21:00:00 24.5 13 Sudoeste 30 Sudoeste 0 1014.3 -- 63
2020-09-20 20:00:00 26.9 11 Sudoeste 17 Sudoeste 0 1013.9 -- 43
2020-09-20 19:00:00 27.8 10 Oeste 21 Oeste 0 1013.7 -- 41
2020-09-20 18:00:00 27.8 12 Oeste 26 Oeste 0 1013.7 -- 42
2020-09-20 17:00:00 27.6 12 Oeste 24 Oeste 0 1014.1 -- 44
2020-09-20 16:00:00 26.7 12 Noroeste 30 Noroeste 0 1014.8 -- 49
2020-09-20 15:00:00 26 10 Oeste 18 Oeste 0 1015.6 -- 51
2020-09-20 14:00:00 25.2 8 Sudoeste 17 Oeste 0 1016.3 -- 57
2020-09-20 13:00:00 24.1 3 Noroeste 11 Norte 0 1016.7 -- 63
2020-09-20 12:00:00 21.7 7 Nordeste 11 Nordeste 0 1016.8 -- 76
2020-09-20 11:00:00 20 5 Este 15 Nordeste 0 1016.9 -- 93
2020-09-20 10:00:00 18.8 8 Nordeste 15 Este 0 1016.5 -- 100
2020-09-20 09:00:00 18.1 4 Nordeste 11 Norte 0 1016.5 -- 100
2020-09-20 08:00:00 18 5 Este 8 Sudeste 0 1016 -- 100
2020-09-20 07:00:00 17.2 6 Este -- -- 0 1015.7 -- 100
2020-09-20 06:00:00 17.6 -- -- -- -- 0 1015.4 -- 100
2020-09-20 05:00:00 18.2 0 Calma 5 Este 0 1015.3 -- 100
2020-09-20 04:00:00 18.8 3 Este 11 Sudoeste 0 1015.9 -- 100
2020-09-20 03:00:00 19 6 Sur 11 Sur 0 1016.1 -- 99
2020-09-20 02:00:00 19.3 8 Sur 13 Sudoeste 0 1016.3 -- 98
2020-09-20 01:00:00 19.5 10 Sur 18 Sur 0 1016.3 -- 90
2020-09-20 00:00:00 20.2 12 Sur 17 Sudoeste 0 1016.2 -- 85
2020-09-19 23:00:00 21.1 13 Sudoeste 18 Sudoeste 0 1015.9 -- 77
2020-09-19 22:00:00 21.9 14 Sudoeste 21 Sudoeste 0 1015.3 -- 72
2020-09-19 21:00:00 22.8 14 Sudoeste 28 Sudoeste 0 1014.4 -- 68
2020-09-19 20:00:00 24.4 20 Sudoeste 32 Sudoeste 0 1013.9 -- 60
2020-09-19 19:00:00 25.6 20 Sudoeste 32 Sur 0 1013.5 -- 56
2020-09-19 18:00:00 26.5 18 Sudoeste 30 Sudoeste 0 1013.3 -- 55
2020-09-19 17:00:00 25.8 15 Sudoeste 24 Sudoeste 0 1013.5 -- 60
2020-09-19 16:00:00 25.5 13 Sudoeste 26 Sur 0 1014 -- 61
2020-09-19 15:00:00 24.6 9 Sur 21 Sudoeste 0 1014.5 -- 67
2020-09-19 14:00:00 23.3 9 Sur 18 Sur 0 1015.3 -- 74
2020-09-19 13:00:00 21.8 3 Este 8 Sudeste 0 1015.7 -- 75
2020-09-19 12:00:00 20.3 0 Calma 9 Norte 0.1 1015.7 -- 88
2020-09-19 11:00:00 19.5 4 Sudoeste 11 Noroeste 0.2 1015.4 -- 99
2020-09-19 10:00:00 19.5 4 Oeste 13 Sur 0 1014.8 -- 100
2020-09-19 09:00:00 19 12 Sur 17 Sur 0 1014.3 -- 100
2020-09-19 08:00:00 18.8 10 Sur 24 Sur 0.4 1013.5 -- 100
2020-09-19 07:00:00 19.4 9 Sur 13 Sur 0 1013.2 -- 100
2020-09-19 06:00:00 19.7 9 Sur 11 Sur 0 1013.1 -- 98
2020-09-19 05:00:00 19.8 8 Sur 15 Sur 0 1012.9 -- 97
2020-09-19 04:00:00 19.4 6 Sur 22 Sudoeste 0 1013.1 -- 95
2020-09-19 03:00:00 19.8 18 Sudoeste 28 Sudoeste 0.7 1013.1 -- 91
2020-09-19 02:00:00 20.2 17 Sudoeste 26 Sudoeste 0 1013 -- 87
2020-09-19 01:00:00 20.4 19 Sudoeste 28 Sudoeste 0 1013 -- 88
2020-09-19 00:00:00 20.3 14 Sudoeste 33 Sudoeste 0 1012.7 -- 87
2020-09-18 23:00:00 20.5 22 Sudoeste 52 Sudoeste 1.7 1012.6 -- 87
2020-09-18 22:00:00 22.2 26 Sudoeste 39 Sudoeste 0 1011.8 -- 74
2020-09-18 21:00:00 22.4 26 Sudoeste 45 Sudoeste 0 1010.8 -- 73
2020-09-18 20:00:00 23.1 32 Sudoeste 50 Sudoeste 0 1010.4 -- 69
2020-09-18 19:00:00 24.1 39 Sudoeste 58 Sudoeste 0 1009.7 -- 65
2020-09-18 18:00:00 24.5 45 Sudoeste 63 Sudoeste 0 1009.3 -- 64
2020-09-18 17:00:00 25.2 43 Sudoeste 68 Sudoeste 0 1009 -- 60
2020-09-18 16:00:00 24.6 34 Sudoeste 55 Sur 0 1008.6 -- 66
2020-09-18 15:00:00 23.3 39 Sudoeste 67 Sudoeste 2.6 1009.1 -- 78
2020-09-18 14:00:00 25.2 39 Sudoeste 61 Sudoeste 0 1008.4 -- 62
2020-09-18 13:00:00 25.5 39 Sudoeste 61 Sudoeste 0 1008.2 -- 58
2020-09-18 12:00:00 23.5 3 Sur 24 Sur 0.1 1008.1 -- 77
2020-09-18 11:00:00 23.7 19 Sur 26 Sur 0 1008.2 -- 73
2020-09-18 10:00:00 22.6 9 Sudoeste 17 Sudoeste 0 1008.1 -- 80
2020-09-18 09:00:00 21.2 9 Sudoeste 18 Sudoeste 0 1007.9 -- 87
2020-09-18 08:00:00 21.2 10 Sudoeste 28 Sudoeste 0 1008.1 -- 86
2020-09-18 07:00:00 20.7 6 Sur 18 Sudeste 1.9 1008 -- 91
2020-09-18 06:00:00 21.2 7 Sudoeste 13 Sudoeste 0 1007.9 -- 88
2020-09-18 05:00:00 21.5 11 Sudoeste 24 Sudoeste 0 1007.9 -- 89
2020-09-18 04:00:00 21.3 23 Sudoeste 41 Sur 3.3 1008.1 -- 84
2020-09-18 03:00:00 23.9 23 Sur 45 Sur 0 1008.1 -- 65
2020-09-18 02:00:00 24.3 16 Sur 33 Sur 0 1008.3 -- 59
2020-09-18 01:00:00 24 14 Sur 33 Sur 0 1008.3 -- 64
2020-09-18 00:00:00 24 24 Sur 41 Sur 0 1008.7 -- 65
2020-09-17 23:00:00 23.9 17 Sur 32 Sudoeste 0 1008.9 -- 71
2020-09-17 22:00:00 23.8 19 Sudoeste 32 Sudoeste 0 1008.7 -- 77
2020-09-17 21:00:00 24.3 23 Sudoeste 37 Sudoeste 0 1008.1 -- 72
2020-09-17 20:00:00 25.2 25 Sudoeste 37 Oeste 0 1007.9 -- 67
2020-09-17 19:00:00 26.3 25 Sudoeste 41 Sudoeste 0 1007.5 -- 60
2020-09-17 18:00:00 28 28 Sudoeste 39 Sudoeste 0 1007.1 -- 51
2020-09-17 17:00:00 28.8 20 Sudoeste 32 Oeste 0 1007.3 -- 49
2020-09-17 16:00:00 29.9 15 Sudoeste 32 Sudoeste 0 1007.7 -- 47
2020-09-17 15:00:00 28.5 13 Sur 24 Sudoeste 0 1008.5 -- 54
2020-09-17 14:00:00 27.2 17 Sudoeste 26 Sudoeste 0 1009.1 -- 58
2020-09-17 13:00:00 26.9 13 Sudoeste 26 Oeste 0 1009.7 -- 59
2020-09-17 12:00:00 25.8 13 Oeste 26 Sudoeste 0 1010.3 -- 64
2020-09-17 11:00:00 24.4 14 Sudoeste 22 Sudoeste 0 1010.2 -- 69
2020-09-17 10:00:00 23.9 5 Sur 9 Sudoeste 0 1010 -- 75
2020-09-17 09:00:00 21.6 4 Sudeste 11 Este 0 1010 -- 85
2020-09-17 08:00:00 21.2 4 Este 8 Este 0 1009.7 -- 85
2020-09-17 07:00:00 21.1 5 Este 11 Este 0 1009.4 -- 86
2020-09-17 06:00:00 21.4 8 Este 11 Este 0 1009.4 -- 85
2020-09-17 05:00:00 21.8 6 Este 11 Sudeste 0 1009.8 -- 85
2020-09-17 04:00:00 22.4 5 Este 15 Sudoeste 0 1010.4 -- 82
2020-09-17 03:00:00 23.1 7 Sur 15 Sudoeste 0 1011.3 -- 82
2020-09-17 02:00:00 23.5 10 Sudoeste 15 Sudoeste 0 1011.4 -- 79
2020-09-17 01:00:00 24.1 5 Sur 9 Sur 0 1011.5 -- 75
2020-09-17 00:00:00 24.3 4 Sudeste 9 Sudeste 0 1011.7 -- 74
2020-09-16 23:00:00 24.4 5 Sudoeste 11 Sur 0 1011.5 -- 73
2020-09-16 22:00:00 24.4 9 Sur 22 Sudoeste 0 1011.5 -- 73
2020-09-16 21:00:00 25.2 16 Sudoeste 32 Sudoeste 0 1011.4 -- 69
2020-09-16 20:00:00 26.6 22 Sudoeste 30 Sudoeste 0 1011 -- 65
2020-09-16 19:00:00 29 16 Sudoeste 22 Sudoeste 0 1010.8 -- 53
2020-09-16 18:00:00 29.6 17 Sudoeste 24 Sudoeste 0 1010.8 -- 46
2020-09-16 17:00:00 29.8 10 Sudoeste 22 Sudoeste 0 1011 -- 43
2020-09-16 16:00:00 29.6 8 Oeste 18 Sudoeste 0 1011.5 -- 43
2020-09-16 15:00:00 29.6 9 Oeste 18 Sudoeste 0 1012.3 -- 42
2020-09-16 14:00:00 28.5 8 Sudoeste 21 Oeste 0 1013.4 -- 47
2020-09-16 13:00:00 27.5 6 Sudoeste 17 Sudoeste 0 1013.9 -- 50
2020-09-16 12:00:00 25.1 6 Oeste 11 Oeste 0 1014.7 -- 59
2020-09-16 11:00:00 24.6 3 Nordeste 8 Nordeste 0 1014.7 -- 64
2020-09-16 10:00:00 22.2 4 Norte 11 Nordeste 0 1014.8 -- 68
2020-09-16 09:00:00 20.2 3 Nordeste 8 Nordeste 0 1014.9 -- 77
2020-09-16 08:00:00 19.7 4 Nordeste 8 Nordeste 0 1014.5 -- 82
2020-09-16 07:00:00 19.7 5 Este -- -- 0 1014.4 -- 81
2020-09-16 06:00:00 20.3 4 Este 9 Sudoeste 0 1014.7 -- 80
2020-09-16 05:00:00 21 3 Sur 18 Sur 0 1015.1 -- 76
2020-09-16 04:00:00 21.3 13 Sur 21 Sur 0 1015.5 -- 73
2020-09-16 03:00:00 21.9 4 Sudeste 17 Sur 0 1015.5 -- 69
2020-09-16 02:00:00 23 10 Sur 15 Sur 0 1015.7 -- 65
2020-09-16 01:00:00 24.7 10 Sur 15 Oeste 0 1015.9 -- 57
2020-09-16 00:00:00 25.7 12 Oeste 22 Oeste 0 1015.7 -- 52
2020-09-15 23:00:00 26.8 17 Oeste 24 Oeste 0 1015.5 -- 47
2020-09-15 22:00:00 27.8 16 Oeste 24 Oeste 0 1014.9 -- 48
2020-09-15 21:00:00 28.9 10 Sudoeste 15 Sudoeste 0 1014.2 -- 49
2020-09-15 20:00:00 30.5 8 Sudoeste 18 Sudoeste 0 1014.1 -- 35
2020-09-15 19:00:00 31.4 13 Sudoeste 21 Sudoeste 0 1014.2 -- 36
2020-09-15 18:00:00 31.8 6 Sur 21 Sudoeste 0 1014.3 -- 36
2020-09-15 17:00:00 31.5 11 Sudoeste 24 Sudoeste 0 1015 -- 37
2020-09-15 16:00:00 30.3 10 Oeste 22 Noroeste 0 1015.9 -- 42
2020-09-15 15:00:00 30.3 13 Oeste 22 Sudoeste 0 1016.7 -- 44
2020-09-15 14:00:00 28.8 13 Oeste 24 Sudoeste 0 1017.4 -- 48
2020-09-15 13:00:00 28 8 Oeste 13 Noroeste 0 1017.8 -- 53
2020-09-15 12:00:00 26.9 5 Norte 13 Este 0 1018.4 -- 58
2020-09-15 11:00:00 26.4 6 Este 13 Este 0 1018.2 -- 60
2020-09-15 10:00:00 24.4 3 Este 8 Sudeste 0 1017.9 -- 65
2020-09-15 09:00:00 22.6 3 Sudeste 8 Este 0 1017.6 -- 70
2020-09-15 08:00:00 22.2 2 Norte 5 Nordeste 0 1017 -- 69
2020-09-15 07:00:00 21.3 3 Este 9 Sudeste 0 1016.8 -- 73
2020-09-15 06:00:00 20.7 6 Sudeste 9 Sudeste 0 1016.9 -- 75
2020-09-15 05:00:00 21.2 5 Este 9 Sudeste 0 1017 -- 69
2020-09-15 04:00:00 21.8 6 Este 8 Este 0 1017.1 -- 68
2020-09-15 03:00:00 23 5 Nordeste 9 Noroeste 0 1017.5 -- 63
2020-09-15 02:00:00 23.9 9 Noroeste 18 Oeste 0 1017.5 -- 58
2020-09-15 01:00:00 24.4 13 Oeste 22 Oeste 0 1017.5 -- 64
2020-09-15 00:00:00 24.6 10 Oeste 24 Sudoeste 0 1017.2 -- 64
2020-09-14 23:00:00 24.9 20 Sudoeste 28 Oeste 0 1016.6 -- 69
2020-09-14 22:00:00 26 12 Sudoeste 26 Sudoeste 0 1015.7 -- 67
2020-09-14 21:00:00 27.3 18 Sudoeste 32 Oeste 0 1015 -- 61
2020-09-14 20:00:00 29.1 19 Sudoeste 35 Oeste 0 1014.3 -- 55
2020-09-14 19:00:00 30.9 21 Oeste 32 Oeste 0 1013.7 -- 50
2020-09-14 18:00:00 30.9 21 Oeste 35 Sudoeste 0.2 1013.7 -- 52
2020-09-14 17:00:00 32.4 19 Sudoeste 37 Sudoeste 0 1013.9 -- 39
2020-09-14 16:00:00 33 15 Sur 28 Sudoeste 0 1014.7 -- 33
2020-09-14 15:00:00 32.1 17 Sudoeste 26 Sudoeste 0 1015.4 -- 35
2020-09-14 14:00:00 31.9 11 Oeste 28 Sudoeste 0 1015.8 -- 33
2020-09-14 13:00:00 30.2 10 Oeste 21 Oeste 0 1016.4 -- 36
2020-09-14 12:00:00 28.1 8 Oeste 11 Oeste 0 1016.5 -- 43
2020-09-14 11:00:00 25.9 4 Noroeste 11 Noroeste 0 1016 -- 55
2020-09-14 10:00:00 24.9 0 Calma 5 Oeste 0 1015.5 -- 59
2020-09-14 09:00:00 23.5 0 Calma 9 Nordeste 0 1015.1 -- 64
2020-09-14 08:00:00 23.5 3 Norte 13 Norte 0 1014.8 -- 64
2020-09-14 07:00:00 23.7 5 Noroeste 18 Norte 0 1014.7 -- 63
2020-09-14 06:00:00 23.8 5 Oeste 9 Oeste 0 1014.7 -- 62
2020-09-14 05:00:00 24.4 6 Noroeste 15 Noroeste 0 1014.9 -- 61
2020-09-14 04:00:00 24.1 11 Noroeste 15 Noroeste 0 1015 -- 63
2020-09-14 03:00:00 24.6 3 Norte 8 Nordeste 0 1015.3 -- 63
2020-09-14 02:00:00 24.9 6 Nordeste 9 Norte 0 1015.4 -- 63
2020-09-14 01:00:00 25.7 6 Norte 13 Noroeste 0 1015.9 -- 61
2020-09-14 00:00:00 26.1 9 Noroeste 22 Oeste 0 1016 -- 60
2020-09-13 23:00:00 26.9 18 Oeste 32 Oeste 0 1015.8 -- 59
2020-09-13 22:00:00 28 24 Oeste 33 Noroeste 0 1014.8 -- 55
2020-09-13 21:00:00 30.2 22 Oeste 33 Noroeste 0 1013.5 -- 44
2020-09-13 20:00:00 32.2 30 Oeste 41 Oeste 0 1012.9 -- 38
2020-09-13 19:00:00 35.9 14 Oeste 24 Oeste 0 1012.5 -- 21
2020-09-13 18:00:00 36.5 13 Oeste 21 Oeste 0 1012.7 -- 19
2020-09-13 17:00:00 36.4 10 Sudoeste 26 Oeste 0 1013 -- 19
2020-09-13 16:00:00 36.2 8 Sudoeste 22 Sudoeste 0 1013.6 -- 19
2020-09-13 15:00:00 35.2 6 Sudoeste 24 Sudoeste 0 1014 -- 20
2020-09-13 14:00:00 34.5 14 Sur 28 Sudoeste 0 1014.2 -- 21
2020-09-13 13:00:00 33.8 15 Sudoeste 35 Sudeste 0 1014.6 -- 25
2020-09-13 12:00:00 33.4 22 Este 33 Este 0 1014.5 -- 23
2020-09-13 11:00:00 30.2 20 Este 32 Este 0 1014.4 -- 30
2020-09-13 10:00:00 28.2 12 Este 21 Este 0 1013.8 -- 34
2020-09-13 09:00:00 24.9 4 Norte 9 Noroeste 0 1013.4 -- 46
2020-09-13 08:00:00 25.7 7 Este 13 Este 0 1013.1 -- 43
2020-09-13 07:00:00 25.1 5 Este 11 Este 0 1012.9 -- 44
2020-09-13 06:00:00 24 8 Nordeste 11 Nordeste 0 1012.4 -- 44
2020-09-13 05:00:00 24.1 11 Nordeste 15 Nordeste 0 1012.3 -- 43
2020-09-13 04:00:00 23.4 4 Nordeste 11 Nordeste 0 1012.3 -- 44
2020-09-13 03:00:00 24.7 6 Nordeste 13 Norte 0 1012.6 -- 43
2020-09-13 02:00:00 26.3 7 Norte 8 Norte 0 1012.8 -- 42
2020-09-13 01:00:00 26.8 3 Nordeste 11 Nordeste 0 1012.6 -- 41
2020-09-13 00:00:00 27.6 6 Nordeste 13 Norte 0 1012.5 -- 40
2020-09-12 23:00:00 28.5 5 Sudoeste 13 Sudoeste 0 1012.3 -- 36
2020-09-12 22:00:00 29.8 9 Sudoeste 21 Sudoeste 0 1011.4 -- 33
2020-09-12 21:00:00 30.4 13 Sudoeste 26 Sudoeste 0 1010.5 -- 36
2020-09-12 20:00:00 33.8 15 Sudoeste 30 Sudoeste 0 1009.8 -- 26
2020-09-12 19:00:00 36.6 12 Oeste 24 Sudoeste 0 1009 -- 18
2020-09-12 18:00:00 36.3 19 Sudoeste 28 Sudoeste 0 1008.8 -- 18
2020-09-12 17:00:00 37.5 23 Sur 37 Sur 0 1008.7 -- 18
2020-09-12 16:00:00 37.4 15 Nordeste 26 Nordeste 0 1009.2 -- 16
2020-09-12 15:00:00 37 10 Sudeste 24 Sudeste 0 1009.8 -- 16
2020-09-12 14:00:00 35.3 14 Este 32 Este 0 1010.2 -- 19
2020-09-12 13:00:00 34.3 19 Este 30 Este 0 1010.8 -- 19
2020-09-12 12:00:00 33 19 Este 32 Este 0 1011 -- 21
2020-09-12 11:00:00 28.6 16 Nordeste 24 Nordeste 0 1010.9 -- 29
2020-09-12 10:00:00 25.2 16 Nordeste 22 Nordeste 0 1010.4 -- 37
2020-09-12 09:00:00 21.3 10 Nordeste 15 Nordeste 0 1010.4 -- 52
2020-09-12 08:00:00 20.3 7 Norte 9 Norte 0 1009.9 -- 60
2020-09-12 07:00:00 20.7 7 Norte 13 Norte 0 1009.6 -- 59
2020-09-12 06:00:00 20.8 8 Norte 11 Nordeste 0 1009.3 -- 60
2020-09-12 05:00:00 21.5 2 Este 13 Sur 0 1009.6 -- 59
2020-09-12 04:00:00 22.2 10 Sur 13 Sur 0 1009.4 -- 56
2020-09-12 03:00:00 23.3 4 Sur 13 Sur 0 1009.2 -- 54
2020-09-12 02:00:00 23.7 12 Sur 17 Sur 0 1009.4 -- 52
2020-09-12 01:00:00 26 13 Sudoeste 22 Sudoeste 0 1009.4 -- 43
2020-09-12 00:00:00 27.4 16 Sudoeste 22 Sudoeste 0 1009 -- 37
2020-09-11 23:00:00 28.7 9 Oeste 22 Oeste 0 1008.5 -- 32
2020-09-11 22:00:00 30.6 17 Oeste 26 Oeste 0 1007.9 -- 29
2020-09-11 21:00:00 32.5 8 Noroeste 13 Noroeste 0 1007.2 -- 23
2020-09-11 20:00:00 34.2 11 Noroeste 21 Noroeste 0 1007.1 -- 21
2020-09-11 19:00:00 34.3 14 Noroeste 24 Noroeste 0 1007.2 -- 22
2020-09-11 18:00:00 34.1 13 Noroeste 21 Norte 0 1007.4 -- 24
2020-09-11 17:00:00 34.2 14 Norte 24 Norte 0 1007.9 -- 24
2020-09-11 16:00:00 34.5 9 Norte 22 Norte 0 1008.5 -- 24
2020-09-11 15:00:00 33.3 5 Noroeste 18 Norte 0 1009.3 -- 26
2020-09-11 14:00:00 32.1 8 Noroeste 15 Norte 0 1010.1 -- 28
2020-09-11 13:00:00 30.4 5 Nordeste 15 Este 0 1010.7 -- 31
2020-09-11 12:00:00 28.9 8 Nordeste 17 Nordeste 0 1010.9 -- 36
2020-09-11 11:00:00 25.8 9 Nordeste 15 Nordeste 0 1011 -- 49
2020-09-11 10:00:00 23.2 12 Nordeste 17 Norte 0 1010.8 -- 56
2020-09-11 09:00:00 20.9 8 Nordeste 9 Nordeste 0 1010.3 -- 62
2020-09-11 08:00:00 20.3 5 Nordeste 11 Este 0 1010 -- 65
2020-09-11 07:00:00 20.4 6 Nordeste 9 Nordeste 0 1009.9 -- 65
2020-09-11 06:00:00 21.2 7 Este -- -- 0 1009.9 -- 67
2020-09-11 05:00:00 21.9 0 Calma 15 Sudoeste 0 1009.8 -- 64
2020-09-11 04:00:00 22.8 9 Sudoeste 17 Sudoeste 0 1010 -- 62
2020-09-11 03:00:00 23.4 6 Sur 15 Sudoeste 0 1010.1 -- 59
2020-09-11 02:00:00 24.2 12 Sudoeste 21 Sudoeste 0 1010.4 -- 55
2020-09-11 01:00:00 24.7 14 Sudoeste 22 Sur 0 1010.9 -- 49
2020-09-11 00:00:00 26.8 14 Sur 22 Sur 0 1011 -- 38
2020-09-10 23:00:00 29.3 14 Noroeste 24 Noroeste 0 1010.5 -- 29
2020-09-10 22:00:00 30.5 17 Oeste 21 Oeste 0 1010.1 -- 28
2020-09-10 21:00:00 32.2 9 Sudoeste 11 Sudoeste 0 1009.4 -- 23
2020-09-10 20:00:00 35.2 3 Sur 15 Sur 0 1009.3 -- 20
2020-09-10 19:00:00 35.9 3 Sudoeste 13 Sudeste 0 1009.7 -- 19
2020-09-10 18:00:00 35.3 6 Sur 15 Sur 0 1010.2 -- 20
2020-09-10 17:00:00 35.2 3 Sudoeste 13 Oeste 0 1011.1 -- 23
2020-09-10 16:00:00 33.8 5 Noroeste 15 Noroeste 0 1011.8 -- 28
2020-09-10 15:00:00 33.1 4 Sudeste 13 Este 0 1012.8 -- 29
2020-09-10 14:00:00 31.4 4 Norte 15 Noroeste 0 1013.8 -- 34
2020-09-10 13:00:00 29.3 5 Norte 13 Oeste 0 1014.8 -- 41
2020-09-10 12:00:00 26.7 5 Norte 17 Norte 0 1015.5 -- 52
2020-09-10 11:00:00 24.8 7 Noroeste 17 Norte 0 1015.7 -- 61
2020-09-10 10:00:00 23.1 5 Norte 11 Nordeste 0 1015.6 -- 69
2020-09-10 09:00:00 21.1 5 Nordeste 15 Norte 0 1015.5 -- 79
2020-09-10 08:00:00 20.5 0 Calma 5 Este 0 1014.9 -- 79
2020-09-10 07:00:00 21.1 3 Sudoeste 11 Sudoeste 0 1014.3 -- 79
2020-09-10 06:00:00 21.4 5 Sudeste 21 Sudoeste 0 1014.5 -- 79
2020-09-10 05:00:00 22.3 16 Sudoeste 24 Sudoeste 0 1014.4 -- 78
2020-09-10 04:00:00 22.7 14 Sudoeste 22 Sudoeste 0 1014.5 -- 76
2020-09-10 03:00:00 23.2 15 Sudoeste 24 Sudoeste 0 1014.7 -- 73
2020-09-10 02:00:00 23.7 18 Sudoeste 26 Sudoeste 0 1015.1 -- 68
2020-09-10 01:00:00 23.9 15 Sudoeste 28 Sudoeste 0 1015.5 -- 67
2020-09-10 00:00:00 25.4 13 Sur 22 Sur 0 1015.1 -- 56
2020-09-09 23:00:00 28.8 13 Oeste 21 Noroeste 0 1014.3 -- 39
2020-09-09 22:00:00 30.2 9 Oeste 21 Oeste 0 1013.7 -- 34
2020-09-09 21:00:00 31.1 13 Sudoeste 21 Sudoeste 0 1012.9 -- 35
2020-09-09 20:00:00 33.5 8 Noroeste 18 Norte 0 1012.7 -- 24
2020-09-09 19:00:00 34.2 4 Noroeste 18 Norte 0 1012.6 -- 23
2020-09-09 18:00:00 34.8 8 Oeste 21 Sur 0 1012.9 -- 22
2020-09-09 17:00:00 34.7 4 Este 17 Este 0 1013.5 -- 23
2020-09-09 16:00:00 33.7 3 Sudeste 22 Este 0 1014 -- 25
2020-09-09 15:00:00 32 6 Este 21 Nordeste 0 1014.7 -- 30
2020-09-09 14:00:00 30.3 10 Norte 21 Norte 0 1015.5 -- 35
2020-09-09 13:00:00 29 6 Norte 22 Nordeste 0 1016.2 -- 39
2020-09-09 12:00:00 27.5 12 Nordeste 22 Nordeste 0 1016.8 -- 43
2020-09-09 11:00:00 25.7 11 Nordeste 21 Nordeste 0 1016.9 -- 49
2020-09-09 10:00:00 23.9 15 Nordeste 22 Nordeste 0 1016.4 -- 56
2020-09-09 09:00:00 21.7 13 Nordeste 21 Nordeste 0 1015.9 -- 63
2020-09-09 08:00:00 20.7 6 Nordeste 11 Nordeste 0 1015.3 -- 64
2020-09-09 07:00:00 21.4 9 Norte 11 Norte 0 1015.1 -- 60
2020-09-09 06:00:00 21.8 2 Nordeste 8 Sudeste 0 1014.9 -- 62
2020-09-09 05:00:00 21.9 7 Sudeste 11 Sudeste 0 1014.9 -- 64
2020-09-09 04:00:00 22.9 7 Sudeste 11 Sudoeste 0 1015 -- 60
2020-09-09 03:00:00 24.6 8 Sudoeste 15 Sudoeste 0 1015.1 -- 54
2020-09-09 02:00:00 25.2 8 Oeste 15 Sudoeste 0 1015.2 -- 59
2020-09-09 01:00:00 25.4 11 Sudoeste 18 Sudoeste 0 1015.3 -- 54
2020-09-09 00:00:00 26 10 Sudoeste 22 Sudoeste 0 1014.9 -- 54
2020-09-08 23:00:00 27 15 Sudoeste 26 Sudoeste 0 1014.6 -- 51
2020-09-08 22:00:00 28.1 14 Sudoeste 32 Sudoeste 0 1013.9 -- 51
2020-09-08 21:00:00 29.5 25 Sudoeste 35 Oeste 0 1012.8 -- 48
2020-09-08 20:00:00 32.3 13 Sudeste 32 Sudeste 0 1012 -- 34
2020-09-08 19:00:00 33.6 20 Este 33 Este 0 1011.8 -- 30
2020-09-08 18:00:00 34.5 11 Nordeste 22 Noroeste 0 1011.8 -- 27
2020-09-08 17:00:00 34.6 13 Oeste 22 Oeste 0 1012.1 -- 27
2020-09-08 16:00:00 34 6 Sudoeste 18 Este 0 1012.4 -- 28
2020-09-08 15:00:00 33 8 Nordeste 22 Nordeste 0 1012.9 -- 30
2020-09-08 14:00:00 32.3 6 Este 24 Este 0 1013.4 -- 34
2020-09-08 13:00:00 31.3 7 Este 26 Nordeste 0 1013.9 -- 37
2020-09-08 12:00:00 29.5 17 Nordeste 33 Este 0 1014.3 -- 42
2020-09-08 11:00:00 26.5 10 Nordeste 17 Nordeste 0 1014.5 -- 53
2020-09-08 10:00:00 23.8 13 Norte 18 Norte 0 1014.1 -- 61
2020-09-08 09:00:00 22 8 Nordeste 11 Norte 0 1014.1 -- 65
2020-09-08 08:00:00 20.7 2 Nordeste 9 Nordeste 0 1013.5 -- 73
2020-09-08 07:00:00 20.9 9 Nordeste 13 Nordeste 0 1013 -- 72
2020-09-08 06:00:00 22 5 Norte 8 Norte 0 1012.7 -- 69
2020-09-08 05:00:00 21.8 2 Nordeste 5 Sur 0 1012.5 -- 69
2020-09-08 04:00:00 21.8 5 Sudeste 8 Sudeste 0 1012.6 -- 69
2020-09-08 03:00:00 22.1 5 Este 9 Sudeste 0 1012.3 -- 70
2020-09-08 02:00:00 23.6 4 Este 9 Sur 0 1012.1 -- 66
2020-09-08 01:00:00 24 10 Sur 17 Sur 0 1011.8 -- 67
2020-09-08 00:00:00 24.5 15 Sur 22 Sur 0 1011.5 -- 65
2020-09-07 23:00:00 26.7 13 Sur 21 Sur 0 1011 -- 49
2020-09-07 22:00:00 28.1 14 Sur 28 Sudoeste 0 1010.5 -- 44
2020-09-07 21:00:00 30.3 19 Sudoeste 30 Sudoeste 0 1009.5 -- 37
2020-09-07 20:00:00 33.5 21 Sudoeste 32 Sudoeste 0 1009.1 -- 30
2020-09-07 19:00:00 35.6 24 Sudoeste 32 Sudoeste 0 1008.8 -- 27
2020-09-07 18:00:00 36.6 21 Sudoeste 28 Oeste 0 1008.8 -- 27
2020-09-07 17:00:00 36.7 13 Sur 30 Sudoeste 0 1009.2 -- 25
2020-09-07 16:00:00 36.1 12 Sudoeste 30 Sudoeste 0 1009.9 -- 24
2020-09-07 15:00:00 34.4 8 Sudoeste 17 Oeste 0 1010.9 -- 26
2020-09-07 14:00:00 32.7 5 Sudoeste 15 Sudoeste 0 1011.6 -- 30
2020-09-07 13:00:00 30 9 Oeste 18 Oeste 0 1012.2 -- 35
2020-09-07 12:00:00 28.2 9 Oeste 18 Oeste 0 1012.4 -- 42
2020-09-07 11:00:00 26.1 7 Noroeste 13 Oeste 0 1012.5 -- 53
2020-09-07 10:00:00 24.7 3 Norte 8 Nordeste 0 1012.1 -- 61
2020-09-07 09:00:00 22.1 6 Sur 9 Sur 0 1011.7 -- 71
2020-09-07 08:00:00 20.7 3 Sur -- -- 0 1011.2 -- 73
2020-09-07 07:00:00 22.2 8 Sur 15 Sur 0 1010.8 -- 69
2020-09-07 06:00:00 22.9 8 Sur 15 Sudoeste 0 1010.8 -- 65
2020-09-07 05:00:00 23.4 10 Sur 15 Sur 0 1010.9 -- 63
2020-09-07 04:00:00 24.4 11 Oeste 18 Oeste 0 1011.1 -- 59
2020-09-07 03:00:00 24.9 13 Oeste 18 Sudoeste 0 1011.4 -- 57
2020-09-07 02:00:00 25.6 13 Oeste 18 Oeste 0 1011.4 -- 54
2020-09-07 01:00:00 26.4 14 Oeste 22 Oeste 0 1011.3 -- 52
2020-09-07 00:00:00 26.8 14 Oeste 28 Oeste 0 1011.1 -- 50
2020-09-06 23:00:00 28.4 14 Oeste 30 Oeste 0 1010.6 -- 43
2020-09-06 22:00:00 29.5 15 Oeste 26 Oeste 0 1009.9 -- 39
2020-09-06 21:00:00 31.5 22 Oeste 33 Sudoeste 0 1008.7 -- 34
2020-09-06 20:00:00 33.8 23 Sudoeste 33 Sudoeste 0 1008.2 -- 30
2020-09-06 19:00:00 36.7 10 Sudoeste 22 Oeste 0 1008 -- 21
2020-09-06 18:00:00 37 4 Nordeste 18 Sudeste 0 1008.2 -- 19
2020-09-06 17:00:00 37.3 6 Sudeste 17 Noroeste 0 1008.9 -- 19
2020-09-06 16:00:00 36.6 3 Oeste 21 Este 0 1009.4 -- 19
2020-09-06 15:00:00 35.5 5 Nordeste 18 Este 0 1010 -- 20
2020-09-06 14:00:00 34 4 Este 18 Sudeste 0 1010.7 -- 23
2020-09-06 13:00:00 32.8 10 Este 18 Este 0 1011.1 -- 26
2020-09-06 12:00:00 29.7 8 Nordeste 28 Este 0 1011.3 -- 40
2020-09-06 11:00:00 27.4 14 Nordeste 21 Este 0 1011.3 -- 48
2020-09-06 10:00:00 24.5 11 Nordeste 17 Nordeste 0 1011.2 -- 57
2020-09-06 09:00:00 22 6 Nordeste 17 Nordeste 0 1011.3 -- 63
2020-09-06 08:00:00 20.9 10 Nordeste 18 Nordeste 0 1010.9 -- 65
2020-09-06 07:00:00 21.2 11 Nordeste -- -- 0 1010.7 -- 63
2020-09-06 06:00:00 21.6 10 Norte 13 Nordeste 0 1010.9 -- 63
2020-09-06 05:00:00 21.6 4 Este 9 Sudeste 0 1010.9 -- 63
2020-09-06 04:00:00 22.2 8 Sudeste 13 Sur 0 1010.9 -- 61
2020-09-06 03:00:00 24 12 Sur 15 Sur 0 1011.1 -- 54
2020-09-06 02:00:00 25.6 11 Sur 24 Sudoeste 0 1011.2 -- 49
2020-09-06 01:00:00 27.1 15 Sudoeste 22 Sudoeste 0 1011.4 -- 44
2020-09-06 00:00:00 27.8 14 Sudoeste 30 Sudoeste 0 1011.1 -- 39
2020-09-05 23:00:00 27.7 21 Sudoeste 28 Sudoeste 0 1010.6 -- 44
2020-09-05 22:00:00 31.2 9 Sudoeste 18 Sudoeste 0 1009.8 -- 30
2020-09-05 21:00:00 32.7 12 Sudoeste 18 Sudoeste 0 1009.2 -- 28
2020-09-05 20:00:00 35.4 11 Sudoeste 18 Sur 0 1009 -- 23
2020-09-05 19:00:00 36.7 12 Nordeste 21 Nordeste 0 1009.3 -- 15
2020-09-05 18:00:00 37.3 11 Este 18 Nordeste 0 1009.9 -- 16
2020-09-05 17:00:00 36.8 5 Sur 17 Este 0 1010.7 -- 18
2020-09-05 16:00:00 34.9 9 Norte 26 Noroeste 0 1011.8 -- 20
2020-09-05 15:00:00 33.5 10 Oeste 21 Norte 0 1012.6 -- 29
2020-09-05 14:00:00 32.4 10 Nordeste 18 Norte 0 1013.4 -- 33
2020-09-05 13:00:00 31.1 9 Norte 17 Noroeste 0 1014.3 -- 33
2020-09-05 12:00:00 28.7 8 Norte 21 Este 0 1014.7 -- 39
2020-09-05 11:00:00 27.2 11 Este 17 Este 0 1014.6 -- 48
2020-09-05 10:00:00 24.2 11 Nordeste 22 Nordeste 0 1014.9 -- 60
2020-09-05 09:00:00 21.4 10 Nordeste 17 Nordeste 0 1014.8 -- 68
2020-09-05 08:00:00 20 12 Nordeste 15 Nordeste 0 1014.3 -- 64
2020-09-05 07:00:00 20.5 12 Nordeste 15 Nordeste 0 1014.3 -- 59
2020-09-05 06:00:00 21 0 Calma 8 Nordeste 0 1014.3 -- 67
2020-09-05 05:00:00 21.5 3 Este 8 Este 0 1014.6 -- 67
2020-09-05 04:00:00 21.8 6 Este 11 Sudeste 0 1015.1 -- 64
2020-09-05 03:00:00 22.4 8 Este -- -- -- 1015.4 -- 62
2020-09-05 02:00:00 24.6 3 Noroeste 11 Oeste 0 1015.5 -- 57
2020-09-05 01:00:00 25.6 4 Sudoeste 17 Sudoeste 0 1015.6 -- 53
2020-09-05 00:00:00 26.5 14 Sudoeste 28 Sudoeste 0 1015.5 -- 50
2020-09-04 23:00:00 28.2 18 Sudoeste 28 Sudoeste 0 1015.1 -- 46
2020-09-04 22:00:00 30.4 15 Sur 28 Sudoeste 0 1014.3 -- 37
2020-09-04 21:00:00 32.4 13 Sudoeste 22 Sudoeste 0 1013.4 -- 24
2020-09-04 20:00:00 34.3 13 Sudoeste 24 Sudoeste 0 1013.2 -- 19
2020-09-04 19:00:00 35.3 13 Sudoeste 22 Sudoeste 0 1013.2 -- 18
2020-09-04 18:00:00 36.1 15 Sudoeste 33 Este 0 1013.3 -- 17
2020-09-04 17:00:00 36.1 11 Nordeste 28 Este 0 1013.7 -- 17
2020-09-04 16:00:00 35.8 12 Este 28 Este 0 1014.3 -- 16
2020-09-04 15:00:00 34.7 12 Este 32 Nordeste 0 1015.3 -- 18
2020-09-04 14:00:00 33.4 18 Este 35 Sudeste 0 1016 -- 19
2020-09-04 13:00:00 32.2 27 Este 41 Este 0 1016.7 -- 21
2020-09-04 12:00:00 30.8 20 Este 37 Este 0 1016.9 -- 24
2020-09-04 11:00:00 29.2 26 Este 35 Este 0 1016.7 -- 27
2020-09-04 10:00:00 26.5 20 Este 32 Este 0 1016.5 -- 40
2020-09-04 09:00:00 23.6 17 Este 28 Este 0 1016 -- 52
2020-09-04 08:00:00 23.1 19 Este 32 Este 0 1015.4 -- 52
2020-09-04 07:00:00 23.4 22 Este 32 Este 0 1014.9 -- 54
2020-09-04 06:00:00 23.3 21 Este 30 Este 0 1014.8 -- 53
2020-09-04 05:00:00 23.1 14 Nordeste 26 Nordeste 0 1015.1 -- 51
2020-09-04 04:00:00 23.4 19 Nordeste 26 Nordeste 0 1015.2 -- 48
2020-09-04 03:00:00 24.3 15 Nordeste -- -- -- 1015.4 -- 40
2020-09-04 02:00:00 23.7 13 Nordeste 17 Nordeste 0 1015.8 -- 44
2020-09-04 01:00:00 25.8 9 Norte 15 Nordeste 0 1015.8 -- 33
2020-09-04 00:00:00 26.5 6 Sudeste 18 Sudeste 0 1015.6 -- 32
2020-09-03 23:00:00 28.3 13 Sudeste 26 Sudeste 0 1015.1 -- 28
2020-09-03 22:00:00 30.2 20 Sudeste 32 Sudeste 0 1014.5 -- 23
2020-09-03 21:00:00 31.3 15 Sudeste 24 Sudeste 0 1013.7 -- 23
2020-09-03 20:00:00 34 18 Sudeste 33 Este 0 1013.3 -- 20
2020-09-03 19:00:00 34.9 20 Sudeste 37 Este 0 1013.2 -- 18
2020-09-03 18:00:00 35.5 22 Este 39 Este 0 1013.1 -- 14
2020-09-03 17:00:00 35.7 25 Este 41 Este 0 1013.1 -- 17
2020-09-03 16:00:00 35.3 27 Este 45 Este 0 1013.5 -- 19
2020-09-03 15:00:00 34.9 24 Este 46 Nordeste 0 1014 -- 22
2020-09-03 14:00:00 33.8 25 Este 35 Este 0 1014.4 -- 24
2020-09-03 13:00:00 32.2 20 Este 32 Este 0 1014.8 -- 31
2020-09-03 12:00:00 30.4 17 Este 32 Este 0 1015.1 -- 35
2020-09-03 11:00:00 28.2 17 Este 28 Este 0 1015 -- 41
2020-09-03 10:00:00 25.6 15 Este 22 Este 0 1014.6 -- 51
2020-09-03 09:00:00 21.6 12 Nordeste 21 Nordeste 0 1014.1 -- 60
2020-09-03 08:00:00 19.2 12 Nordeste 18 Nordeste 0 1013.8 -- 67
2020-09-03 07:00:00 20.3 11 Nordeste 17 Nordeste 0 1013.5 -- 64
2020-09-03 06:00:00 19.8 9 Nordeste 13 Norte 0 1013.2 -- 64
2020-09-03 05:00:00 20.8 6 Nordeste 9 Norte 0 1013.2 -- 61
2020-09-03 04:00:00 21 4 Nordeste 11 Sudeste 0 1013 -- 60
2020-09-03 03:00:00 22 6 Sur -- -- -- 1012.8 -- 58
2020-09-03 02:00:00 24.1 8 Sudoeste 18 Sudoeste 0 1012.8 -- 51
2020-09-03 01:00:00 24.1 12 Sur 18 Sur 0 1012.7 -- 54
2020-09-03 00:00:00 25 13 Sur 21 Sudoeste 0 1012.5 -- 52
2020-09-02 23:00:00 26 11 Sudoeste 21 Sudoeste 0 1011.9 -- 51
2020-09-02 22:00:00 27 15 Sudoeste 30 Sudoeste 0 1011 -- 50
2020-09-02 21:00:00 30.7 18 Sudoeste 26 Sudoeste 0 1010.2 -- 32
2020-09-02 20:00:00 33.7 5 Sudeste 9 Sur 0 1009.8 -- 15
2020-09-02 19:00:00 34.1 4 Sudoeste 15 Oeste 0 1009.6 -- 14
2020-09-02 18:00:00 34.1 10 Oeste 17 Oeste 0 1009.5 -- 15
2020-09-02 17:00:00 33.2 10 Oeste 24 Oeste 0 1009.6 -- 18
2020-09-02 16:00:00 32.3 9 Sudoeste 21 Sudoeste 0 1010 -- 24
2020-09-02 15:00:00 30.6 8 Sudoeste 18 Oeste 0 1010.5 -- 31
2020-09-02 14:00:00 29.5 6 Sudoeste 21 Oeste 0 1011.1 -- 35
2020-09-02 13:00:00 27.8 9 Sudoeste 17 Sur 0 1011.3 -- 43
2020-09-02 12:00:00 25.8 8 Sudoeste 17 Oeste 0 1011.5 -- 53
2020-09-02 11:00:00 23.7 4 Norte 11 Noroeste 0 1011.2 -- 64
2020-09-02 10:00:00 21.1 5 Nordeste 11 Norte 0 1010.5 -- 69
2020-09-02 09:00:00 18.5 2 Norte 9 Norte 0 1010 -- 77
2020-09-02 08:00:00 17.6 0 Calma 9 Este 0 1009.6 -- 81
2020-09-02 07:00:00 18 0 Calma 9 Este 0 1009.1 -- 81
2020-09-02 06:00:00 18 0 Calma 8 Este 0 1008.8 -- 79
2020-09-02 05:00:00 19 2 Nordeste -- -- 0 1008.5 -- 77
2020-09-02 04:00:00 19 4 Sudeste 8 Sur 0 1008.6 -- 78
2020-09-02 03:00:00 20 6 Sur -- -- -- 1008.7 -- 77
2020-09-02 02:00:00 21.2 8 Sur 18 Sudoeste 0 1008.8 -- 69
2020-09-02 01:00:00 21.2 12 Sur 18 Sur 0 1008.9 -- 56
2020-09-02 00:00:00 21.8 14 Sur 21 Sudoeste 0 1008.8 -- 60
2020-09-01 23:00:00 23.7 12 Sur 21 Sudoeste 0 1008.4 -- 52
2020-09-01 22:00:00 25.4 13 Sudoeste 28 Sudoeste 0 1008.2 -- 43
2020-09-01 21:00:00 27.4 19 Sudoeste 35 Sudoeste 0 1007.2 -- 33
2020-09-01 20:00:00 29.7 27 Sudoeste 42 Sudoeste 0 1006.8 -- 25
2020-09-01 19:00:00 31.8 25 Sudoeste 33 Sudoeste 0 1006.7 -- 21
2020-09-01 18:00:00 32.4 14 Sudoeste 26 Sudoeste 0 1007 -- 21
2020-09-01 17:00:00 32.2 12 Sur 26 Sudoeste 0 1007.5 -- 20
2020-09-01 16:00:00 31.3 13 Sudoeste 26 Sudoeste 0 1008.3 -- 21
2020-09-01 15:00:00 30.7 14 Sudoeste 28 Oeste 0 1009.2 -- 23
2020-09-01 14:00:00 29.4 9 Sur 18 Sudoeste 0 1009.8 -- 27
2020-09-01 13:00:00 27.8 7 Oeste 13 Sudoeste 0 1010.3 -- 32
2020-09-01 12:00:00 25.7 8 Noroeste 13 Noroeste 0 1010.9 -- 36
2020-09-01 11:00:00 23.9 0 Calma 9 Nordeste 0 1010.7 -- 46
2020-09-01 10:00:00 22.6 3 Este 13 Norte 0 1010.2 -- 53
2020-09-01 09:00:00 20.5 0 Calma -- -- 0 1010.2 -- 60
2020-09-01 08:00:00 18.9 6 Sudeste 9 Sudeste 0 1010.3 -- 66
2020-09-01 07:00:00 19.7 2 Este 8 Noroeste 0 1010 -- 62
2020-09-01 06:00:00 20.2 3 Norte 9 Noroeste 0 1010 -- 59
2020-09-01 05:00:00 19.9 3 Nordeste 11 Este 0 1010.1 -- 59
2020-09-01 04:00:00 20.7 5 Este 9 Sudeste 0 1010.5 -- 57
2020-09-01 03:00:00 21.2 7 Este -- -- -- 1010.9 -- 53
2020-09-01 02:00:00 22.4 4 Sur 8 Sudoeste 0 1011.2 -- 51
2020-09-01 01:00:00 24.7 2 Sur 15 Oeste 0 1011.2 -- 42
2020-09-01 00:00:00 26.6 13 Oeste 26 Oeste 0 1010.9 -- 36
2020-08-31 23:00:00 27.1 14 Sudoeste 18 Sudoeste 0 1010.3 -- 34
2020-08-31 22:00:00 27.4 9 Sudeste 15 Sudeste 0 1009.5 -- 28
2020-08-31 21:00:00 31 13 Este 22 Este 0 1008.9 -- 21
2020-08-31 20:00:00 33.4 13 Este 24 Nordeste 0 1008.9 -- 16
2020-08-31 19:00:00 33.9 14 Nordeste 26 Nordeste 0 1009.1 -- 16
2020-08-31 18:00:00 34.1 15 Nordeste 30 Nordeste 0 1009.2 -- 17
2020-08-31 17:00:00 34 16 Nordeste 32 Este 0 1009.8 -- 17
2020-08-31 16:00:00 33.6 17 Este 32 Este 0 1010.4 -- 18
2020-08-31 15:00:00 32.8 15 Este 37 Nordeste 0 1011.4 -- 19
2020-08-31 14:00:00 32 18 Nordeste 35 Este 0 1012 -- 22
2020-08-31 13:00:00 30.6 15 Este 35 Este 0 1012.6 -- 30
2020-08-31 12:00:00 28.4 18 Este 30 Este 0 1013.1 -- 39
2020-08-31 11:00:00 26.5 17 Nordeste 24 Nordeste 0 1013.2 -- 47
2020-08-31 10:00:00 23.2 15 Nordeste 26 Nordeste 0 1012.9 -- 45
2020-08-31 09:00:00 20.6 18 Nordeste 26 Nordeste 0 1012.4 -- 46
2020-08-31 08:00:00 18.5 14 Nordeste 18 Nordeste 0 1011.8 -- 55
2020-08-31 07:00:00 18.8 12 Nordeste 17 Nordeste 0 1011.4 -- 40
2020-08-31 06:00:00 19.6 10 Nordeste 18 Este 0 1011.1 -- 37
2020-08-31 05:00:00 19.5 9 Nordeste 13 Nordeste 0 1010.9 -- 31
2020-08-31 04:00:00 20.4 5 Nordeste 15 Nordeste 0 1011.1 -- 36
2020-08-31 03:00:00 22.3 13 Nordeste -- -- -- 1010.9 -- 31
2020-08-31 02:00:00 20.9 9 Sur 15 Este 0 1011.1 -- 45
2020-08-31 01:00:00 23.6 7 Sudoeste 15 Sudoeste 0 1011 -- 37
2020-08-31 00:00:00 24.2 5 Este 17 Sudeste 0 1010.4 -- 25
2020-08-30 23:00:00 25.2 4 Este 13 Este 0 1009.5 -- 24
2020-08-30 22:00:00 27.3 3 Nordeste 5 Nordeste 0 1008.4 -- 24
2020-08-30 21:00:00 30.6 2 Este 9 Este 0 1007.3 -- 17
2020-08-30 20:00:00 32.7 4 Este 13 Nordeste 0 1006.7 -- 12
2020-08-30 19:00:00 33 4 Sudeste 15 Sur 0 1006.3 -- 12
2020-08-30 18:00:00 32.8 8 Sudoeste 24 Nordeste 0 1006.5 -- 12
2020-08-30 17:00:00 33.4 9 Sudoeste 24 Este 0 1006.8 -- 11
2020-08-30 16:00:00 31.8 13 Norte 39 Este 0 1007.3 -- 13
2020-08-30 15:00:00 31.4 8 Nordeste 28 Este 0 1007.6 -- 14
2020-08-30 14:00:00 30.9 14 Este 30 Nordeste 0 1008 -- 15
2020-08-30 13:00:00 29.6 18 Nordeste 33 Este 0 1008.3 -- 19
2020-08-30 12:00:00 27.9 23 Este 37 Este 0 1008.4 -- 21
2020-08-30 11:00:00 25.5 27 Nordeste 37 Este 0 1008.3 -- 25
2020-08-30 10:00:00 22.2 11 Nordeste 17 Nordeste 0 1008.3 -- 32
2020-08-30 09:00:00 20.3 10 Nordeste 18 Nordeste 0 1007.9 -- 36
2020-08-30 08:00:00 19.6 11 Nordeste 15 Nordeste 0 1007.4 -- 37
2020-08-30 07:00:00 19 9 Nordeste 13 Nordeste 0 1007.1 -- 38
2020-08-30 06:00:00 19.3 10 Nordeste 13 Nordeste 0 1006.8 -- 39
2020-08-30 05:00:00 17.9 2 Sudeste 5 Sudeste 0 1006.8 -- 44
2020-08-30 04:00:00 17.9 3 Este 8 Este 0 1006.6 -- 42
2020-08-30 03:00:00 20.1 2 Norte 15 Noroeste 0 1006.6 -- 31
2020-08-30 02:00:00 20.8 9 Noroeste 11 Noroeste 0 1006.7 -- 31
2020-08-30 01:00:00 21.9 7 Noroeste 13 Noroeste 0 1006.7 -- 28
2020-08-30 00:00:00 23.2 10 Noroeste 22 Norte 0 1006.5 -- 23
2020-08-29 23:00:00 25.4 15 Norte 22 Norte 0 1005.8 -- 15
2020-08-29 22:00:00 26.6 13 Norte 21 Norte 0 1004.9 -- 12
2020-08-29 21:00:00 28.3 15 Norte 30 Norte 0 1003.9 -- 10
2020-08-29 20:00:00 30.1 23 Norte 39 Nordeste 0 1003.5 -- 8
2020-08-29 19:00:00 31 23 Norte 35 Norte 0 1003.2 -- 7
2020-08-29 18:00:00 31.1 18 Norte 33 Norte 0 1003.1 -- 9
2020-08-29 17:00:00 31 16 Norte 35 Norte 0 1003.2 -- 10
2020-08-29 16:00:00 30 24 Norte 39 Norte 0 1003.9 -- 12
2020-08-29 15:00:00 29 22 Noroeste 42 Norte 0 1004.5 -- 16
2020-08-29 14:00:00 27.3 18 Norte 37 Norte 0 1004.8 -- 19
2020-08-29 13:00:00 25.4 13 Noroeste 30 Noroeste 0 1005.4 -- 22
2020-08-29 12:00:00 23.8 13 Noroeste 28 Noroeste 0 1005.7 -- 27
2020-08-29 11:00:00 22 16 Noroeste 28 Noroeste 0 1005.7 -- 32
2020-08-29 10:00:00 20.5 17 Noroeste 26 Noroeste 0 1005.7 -- 40
2020-08-29 09:00:00 18.6 9 Norte 15 Norte 0 1005.5 -- 50
2020-08-29 08:00:00 18.2 7 Noroeste 15 Noroeste 0 1005.1 -- 49
2020-08-29 07:00:00 18.4 10 Noroeste 15 Noroeste 0 1004.7 -- 43
2020-08-29 06:00:00 18.9 9 Noroeste 22 Noroeste 0 1004.2 -- 44
2020-08-29 05:00:00 20.4 18 Noroeste 26 Noroeste 0 1004.2 -- 38
2020-08-29 04:00:00 21.3 18 Noroeste 24 Noroeste 0 1004.3 -- 35
2020-08-29 03:00:00 22.2 15 Noroeste 22 Noroeste 0 1004.6 -- 33
2020-08-29 02:00:00 23.6 17 Noroeste 26 Noroeste 0 1004.6 -- 26
2020-08-29 01:00:00 25.4 13 Noroeste 24 Oeste 0 1004.6 -- 25
2020-08-29 00:00:00 27 22 Noroeste 32 Oeste 0 1004.4 -- 20
2020-08-28 23:00:00 28.6 22 Noroeste 32 Noroeste 0 1004.4 -- 12
2020-08-28 22:00:00 30.6 24 Noroeste 33 Noroeste 0 1003.8 -- 11
2020-08-28 21:00:00 32.4 21 Noroeste 41 Oeste 0 1003.1 -- 21
2020-08-28 20:00:00 34.2 31 Oeste 50 Oeste 0 1002.8 -- 21
2020-08-28 19:00:00 36.3 33 Oeste 42 Oeste 0 1002.8 -- 19
2020-08-28 18:00:00 35.8 12 Sur 33 Sudoeste 0 1003.1 -- 27
2020-08-28 17:00:00 35 21 Sudoeste 37 Sudoeste 0 1004 -- 28
2020-08-28 16:00:00 35.3 21 Sudoeste 33 Sur 0 1004.6 -- 26
2020-08-28 15:00:00 34.3 19 Sudoeste 30 Sudoeste 0 1005.6 -- 27
2020-08-28 14:00:00 32.2 15 Sudoeste 26 Sudoeste 0 1006.6 -- 34
2020-08-28 13:00:00 30.4 11 Sudoeste 22 Sudoeste 0 1007.6 -- 38
2020-08-28 12:00:00 28.6 11 Sudoeste 21 Oeste 0 1008.1 -- 44
2020-08-28 11:00:00 27 11 Sudoeste 15 Sudoeste 0 1008 -- 48
2020-08-28 10:00:00 25.4 6 Sudoeste 11 Oeste 0 1008 -- 54
2020-08-28 09:00:00 23.4 4 Sur 8 Oeste 0 1007.7 -- 61
2020-08-28 08:00:00 22.7 4 Noroeste 13 Noroeste 0 1007.7 -- 61
2020-08-28 07:00:00 22.3 8 Oeste 13 Oeste 0 1007.4 -- 61
2020-08-28 06:00:00 22.4 4 Sudoeste 9 Sur 0 1007.4 -- 62
2020-08-28 05:00:00 22.9 6 Sur 9 Sur 0 1007.6 -- 61
2020-08-28 04:00:00 24.2 5 Sur 11 Oeste 0 1007.7 -- 56
2020-08-28 03:00:00 25.6 6 Sudoeste 11 Sur 0 1008.3 -- 53
2020-08-28 02:00:00 25.5 5 Sur 13 Sudoeste 0 1008.8 -- 54
2020-08-28 01:00:00 26.8 6 Sur 21 Sur 0 1008.9 -- 50
2020-08-28 00:00:00 27.7 10 Sur 26 Sudoeste 0 1008.9 -- 47
2020-08-27 23:00:00 28.6 22 Sur 30 Sur 0 1009 -- 46
2020-08-27 22:00:00 30.4 16 Sudoeste 32 Sudoeste 0 1008.7 -- 39
2020-08-27 21:00:00 32.6 22 Sudoeste 33 Sudoeste 0 1008.4 -- 34
2020-08-27 20:00:00 36.6 17 Sudoeste 30 Sudoeste 0 1008.1 -- 25
2020-08-27 19:00:00 38.8 18 Sudoeste 32 Sur 0 1008.2 -- 15
2020-08-27 18:00:00 39.2 19 Sudoeste 33 Sudoeste 0 1008.9 -- 13
2020-08-27 17:00:00 39.6 20 Sudoeste 32 Sudoeste 0 1009.6 -- 14
2020-08-27 16:00:00 39.1 19 Sudoeste 33 Sudoeste 0 1010.4 -- 15
2020-08-27 15:00:00 38.3 14 Sudoeste 30 Sudoeste 0 1011.4 -- 16
2020-08-27 14:00:00 37 8 Sudoeste 22 Sur 0 1012.1 -- 18
2020-08-27 13:00:00 34.1 7 Noroeste 15 Noroeste 0 1012.8 -- 23
2020-08-27 12:00:00 31.8 4 Este 9 Este 0 1013.3 -- 28
2020-08-27 11:00:00 28.4 4 Norte 11 Noroeste 0 1013.5 -- 39
2020-08-27 10:00:00 26.6 6 Oeste 9 Oeste 0 1013.3 -- 44
2020-08-27 09:00:00 22.6 3 Sudeste 8 Sudeste 0 1013.1 -- 53
2020-08-27 08:00:00 20.3 5 Sudeste 9 Sudeste 0 1012.9 -- 59
2020-08-27 07:00:00 21.5 6 Este 9 Sudeste 0 1012.7 -- 55
2020-08-27 06:00:00 22.1 6 Sudeste 9 Sudeste 0 1012.6 -- 55
2020-08-27 05:00:00 23.2 3 Sur 9 Sur 0 1013 -- 52
2020-08-27 04:00:00 24.8 2 Sudeste 15 Sur 0 1013 -- 47
2020-08-27 03:00:00 25.1 12 Sur 18 Sur 0 1013.2 -- 50
2020-08-27 02:00:00 26.4 7 Sur 18 Sur 0 1013.3 -- 47
2020-08-27 01:00:00 28.6 14 Sur 18 Sur 0 1013.5 -- 40
2020-08-27 00:00:00 29.6 8 Sur 13 Noroeste 0 1013.3 -- 36
2020-08-26 23:00:00 32.1 7 Oeste 13 Noroeste 0 1013.1 -- 31
2020-08-26 22:00:00 33.9 12 Sudoeste 28 Sudoeste 0 1012.4 -- 28
2020-08-26 21:00:00 35.4 22 Sudoeste 32 Sudoeste 0 1011.6 -- 27
2020-08-26 20:00:00 38.3 21 Sudoeste 30 Sudoeste 0 1011.2 -- 22
2020-08-26 19:00:00 38.9 17 Sudoeste 30 Sudoeste 0 1011.5 -- 22
2020-08-26 18:00:00 40.2 12 Sudoeste 22 Oeste 0 1011.6 -- 17
2020-08-26 17:00:00 39.6 7 Sur 22 Oeste 0 1012 -- 20
2020-08-26 16:00:00 38.8 11 Oeste 21 Oeste 0 1012.5 -- 19
2020-08-26 15:00:00 37.9 8 Oeste 21 Sudoeste 0 1012.9 -- 22
2020-08-26 14:00:00 35.3 6 Oeste 15 Noroeste 0 1013.6 -- 27
2020-08-26 13:00:00 33.4 6 Oeste 15 Oeste -- 1014.2 -- 31
2020-08-26 12:00:00 31.1 3 Noroeste 11 Noroeste -- 1014.5 -- 40
2020-08-26 11:00:00 28.5 4 Este 15 Noroeste -- 1014.2 -- 52
2020-08-26 10:00:00 26.1 5 Noroeste 9 Norte 0 1013.7 -- 62
2020-08-26 09:00:00 24.1 0 Calma 11 Norte 0 1013.6 -- 69
2020-08-26 08:00:00 22.1 4 Nordeste 5 Nordeste 0 1013 -- 77
2020-08-26 07:00:00 22.3 4 Este 8 Sur 0 1012.6 -- 76
2020-08-26 06:00:00 22.7 5 Sur 9 Sur 0 1012.3 -- 74
2020-08-26 05:00:00 23.2 3 Este 11 Sur 0 1012.3 -- 74
2020-08-26 04:00:00 24.2 4 Sur 22 Sur 0 1012.3 -- 72
2020-08-26 03:00:00 24.9 13 Sur 21 Sur 0 1012.3 -- 69
2020-08-26 02:00:00 25.7 13 Sur 22 Sur 0 1012.5 -- 66
2020-08-26 01:00:00 27 15 Sur 21 Sudoeste 0 1012.1 -- 60
2020-08-26 00:00:00 29.1 10 Sudoeste 21 Sudoeste 0 1011.9 -- 50
2020-08-25 23:00:00 30.9 15 Sudoeste 21 Sudoeste 0 1011.2 -- 43
2020-08-25 22:00:00 32.2 14 Sudoeste 26 Sudoeste 0 1010.1 -- 42
2020-08-25 21:00:00 35.7 15 Sudoeste 24 Sudoeste 0 1008.7 -- 24
2020-08-25 20:00:00 37.6 13 Sudoeste 22 Sur 0 1008.4 -- 18
2020-08-25 19:00:00 38.8 13 Sur 22 Sur 0 1008.6 -- 16
2020-08-25 18:00:00 38.6 6 Oeste 18 Oeste 0 1008.8 -- 18
2020-08-25 17:00:00 38.2 5 Noroeste 18 Oeste 0 1009.2 -- 20
2020-08-25 16:00:00 37.4 4 Este 17 Sudeste 0 1009.7 -- 23
2020-08-25 15:00:00 35.8 9 Sudoeste 18 Norte 0 1010.5 -- 28
2020-08-25 14:00:00 33.8 5 Noroeste 17 Norte 0 1011.1 -- 33
2020-08-25 13:00:00 31.9 4 Sudeste 17 Norte 0 1011.5 -- 39
2020-08-25 12:00:00 29.4 8 Norte 18 Nordeste 0 1011.7 -- 48
2020-08-25 11:00:00 27.7 11 Norte 17 Norte 0 1011.7 -- 55
2020-08-25 10:00:00 26.1 6 Nordeste 11 Norte 0 1011.6 -- 60
2020-08-25 09:00:00 23.3 6 Nordeste 8 Nordeste 0 1011.3 -- 72
2020-08-25 08:00:00 22 3 Nordeste -- -- 0 1010.8 -- 77
2020-08-25 07:00:00 22.5 7 Nordeste 9 Nordeste 0 1010.5 -- 74
2020-08-25 06:00:00 22.6 5 Este 9 Este 0 1010.6 -- 74
2020-08-25 05:00:00 23.6 6 Sur 13 Sudoeste 0 1010.5 -- 71
2020-08-25 04:00:00 24.7 9 Sudoeste 18 Sudoeste 0 1010.6 -- 67
2020-08-25 03:00:00 24.6 15 Sur 26 Sur 0 1010.6 -- 68
2020-08-25 02:00:00 25 16 Sur 24 Sur 0 1010.6 -- 64
2020-08-25 01:00:00 25.7 14 Sudoeste 22 Sudoeste 0 1010.5 -- 61
2020-08-25 00:00:00 27.5 12 Sur 21 Sur 0 1010.3 -- 55
2020-08-24 23:00:00 30.2 13 Sudoeste 26 Oeste 0 1009.8 -- 44
2020-08-24 22:00:00 31.9 19 Oeste 26 Oeste 0 1008.9 -- 36
2020-08-24 21:00:00 33.7 17 Oeste 24 Oeste 0 1008 -- 33
2020-08-24 20:00:00 36.3 10 Sudoeste 18 Oeste 0 1007.9 -- 22
2020-08-24 19:00:00 37.1 10 Oeste 21 Oeste 0 1008.3 -- 15
2020-08-24 18:00:00 36.7 14 Oeste 28 Oeste 0 1008.8 -- 16
2020-08-24 17:00:00 36.4 12 Oeste 26 Sudoeste 0 1009.1 -- 22
2020-08-24 16:00:00 35.6 13 Oeste 21 Oeste 0 1009.9 -- 25
2020-08-24 15:00:00 34.3 8 Oeste 22 Oeste 0 1010.6 -- 27
2020-08-24 14:00:00 32.6 6 Noroeste 15 Oeste 0 1011.1 -- 31
2020-08-24 13:00:00 30.8 4 Noroeste 11 Noroeste 0 1012 -- 35
2020-08-24 12:00:00 29 5 Norte 13 Noroeste 0 1012.2 -- 42
2020-08-24 11:00:00 26.9 4 Norte 13 Oeste 0 1012.4 -- 47
2020-08-24 10:00:00 25.3 3 Noroeste 9 Sudeste 0 1012.2 -- 49
2020-08-24 09:00:00 22.3 4 Este 5 Sudeste 0 1011.8 -- 60
2020-08-24 08:00:00 19.3 0 Calma 9 Este 0 1011.5 -- 65
2020-08-24 07:00:00 19.5 6 Este 9 Este 0 1010.9 -- 59
2020-08-24 06:00:00 19 6 Este 9 Sudeste 0 1011 -- 61
2020-08-24 05:00:00 20.8 8 Norte 11 Norte 0 1011.1 -- 53
2020-08-24 04:00:00 20.7 5 Sudeste 13 Sudeste 0 1010.7 -- 58
2020-08-24 03:00:00 23.8 2 Sudoeste 15 Oeste 0 1011 -- 50
2020-08-24 02:00:00 24.5 8 Sur 21 Sur 0 1011 -- 41
2020-08-24 01:00:00 25.7 14 Sur 24 Sur 0 1011 -- 38
2020-08-24 00:00:00 25.1 14 Sur 22 Sur 0 1011.1 -- 45